createdAt,value
2019-06-20T06:36:43.379Z,17.50
2019-06-20T06:39:43.623Z,17.50
2019-06-20T06:42:28.634Z,17.50
2019-06-20T06:45:35.487Z,17.30
2019-06-20T06:48:42.725Z,17.20
2019-06-20T06:51:27.885Z,17.20
2019-06-20T06:54:31.639Z,17.10
2019-06-20T06:57:43.551Z,17.20
2019-06-20T07:00:52.204Z,17.30
2019-06-20T07:03:55.285Z,17.50
2019-06-20T07:06:52.161Z,17.70
2019-06-20T07:09:47.260Z,17.80
2019-06-20T07:12:48.901Z,17.90
2019-06-20T07:15:46.342Z,18.00
2019-06-20T07:18:57.484Z,17.80
2019-06-20T07:21:56.083Z,17.60
2019-06-20T07:24:56.889Z,17.50
2019-06-20T07:27:51.290Z,17.50
2019-06-20T07:30:51.519Z,17.50
2019-06-20T07:34:01.949Z,17.50
2019-06-20T07:37:12.654Z,17.50
2019-06-20T07:40:17.692Z,17.50
2019-06-20T07:43:32.673Z,17.40
2019-06-20T07:46:26.294Z,17.30
2019-06-20T07:49:24.773Z,17.20
2019-06-20T07:52:27.637Z,17.20
2019-06-20T07:55:28.554Z,17.30
2019-06-20T07:58:17.424Z,17.60
2019-06-20T08:01:16.188Z,17.80
2019-06-20T08:04:23.011Z,18.00
2019-06-20T08:07:31.597Z,18.10
2019-06-20T08:10:37.849Z,18.10
2019-06-20T08:13:54.592Z,18.10
2019-06-20T08:16:57.738Z,18.20
2019-06-20T08:20:03.420Z,18.30
2019-06-20T08:22:51.327Z,18.30
2019-06-20T08:25:33.829Z,18.20
2019-06-20T08:28:34.824Z,18.20
2019-06-20T08:31:51.619Z,18.20
2019-06-20T08:35:02.414Z,18.30
2019-06-20T08:38:13.602Z,18.30
2019-06-20T08:41:20.680Z,18.40
2019-06-20T08:44:36.249Z,18.60
2019-06-20T08:47:23.861Z,18.70
2019-06-20T08:50:12.023Z,18.60
2019-06-20T08:53:18.749Z,18.60
2019-06-20T08:56:11.053Z,18.70
2019-06-20T08:59:23.981Z,18.90
2019-06-20T09:02:20.143Z,18.90
2019-06-20T09:05:20.149Z,18.80
2019-06-20T09:08:22.170Z,19.00
2019-06-20T09:11:16.745Z,19.00
2019-06-20T09:14:17.420Z,19.20
2019-06-20T09:17:10.589Z,19.30
2019-06-20T09:20:20.445Z,19.50
2019-06-20T09:23:28.019Z,19.70
2019-06-20T09:26:42.060Z,20.10
2019-06-20T09:29:48.957Z,20.50
2019-06-20T09:32:59.993Z,20.60
2019-06-20T09:36:17.348Z,20.80
2019-06-20T09:39:23.481Z,21.10
2019-06-20T09:42:21.905Z,21.10
2019-06-20T09:45:32.700Z,21.00
2019-06-20T09:48:32.628Z,20.70
2019-06-20T09:51:36.609Z,21.00
2019-06-20T09:54:50.118Z,21.40
2019-06-20T09:57:58.295Z,21.70
2019-06-20T10:00:57.437Z,21.70
2019-06-20T10:03:50.434Z,21.50
2019-06-20T10:06:56.568Z,21.10
2019-06-20T10:09:58.842Z,20.90
2019-06-20T10:13:06.867Z,20.70
2019-06-20T10:16:00.739Z,20.40
2019-06-20T10:19:14.724Z,20.60
2019-06-20T10:22:20.415Z,20.70
2019-06-20T10:25:32.576Z,21.20
2019-06-20T10:28:44.623Z,21.70
2019-06-20T10:31:45.748Z,21.90
2019-06-20T10:34:32.870Z,22.00
2019-06-20T10:37:11.768Z,21.80
2019-06-20T10:39:59.242Z,21.20
2019-06-20T10:42:50.668Z,21.00
2019-06-20T10:45:47.457Z,21.10
2019-06-20T10:48:53.782Z,20.90
2019-06-20T10:51:44.029Z,21.20
2019-06-20T10:54:26.402Z,21.10
2019-06-20T10:57:35.972Z,20.80
2019-06-20T11:00:44.509Z,20.60
2019-06-20T11:03:51.274Z,20.60
2019-06-20T11:06:57.199Z,21.00
2019-06-20T11:10:05.302Z,21.10
2019-06-20T11:13:20.139Z,21.30
2019-06-20T11:16:28.486Z,21.30
2019-06-20T11:19:43.772Z,21.20
2019-06-20T11:22:49.215Z,21.00
2019-06-20T11:25:54.298Z,20.90
2019-06-20T11:29:00.446Z,20.80
2019-06-20T11:32:10.271Z,20.70
2019-06-20T11:35:23.817Z,20.50
2019-06-20T11:38:33.217Z,20.30
2019-06-20T11:41:46.413Z,20.00
2019-06-20T11:44:53.797Z,20.00
2019-06-20T11:47:57.863Z,20.60
2019-06-20T11:51:03.016Z,21.40
2019-06-20T11:54:10.215Z,21.30
2019-06-20T11:57:08.634Z,22.10
2019-06-20T12:00:18.039Z,21.80
2019-06-20T12:03:23.921Z,21.70
2019-06-20T12:06:14.132Z,21.10
2019-06-20T12:09:17.408Z,20.80
2019-06-20T12:12:25.172Z,20.60
2019-06-20T12:15:36.243Z,20.50
2019-06-20T12:18:43.364Z,20.80
2019-06-20T12:21:49.286Z,21.10
2019-06-20T12:24:45.025Z,21.10
2019-06-20T12:27:45.230Z,20.70
2019-06-20T12:30:41.586Z,20.70
2019-06-20T12:33:41.028Z,20.40
2019-06-20T12:36:44.817Z,20.00
2019-06-20T12:39:40.401Z,19.80
2019-06-20T12:42:39.150Z,19.90
2019-06-20T12:45:49.553Z,19.70
2019-06-20T12:49:03.912Z,19.90
2019-06-20T12:51:56.152Z,20.20
2019-06-20T12:54:55.921Z,20.40
2019-06-20T12:57:57.151Z,20.70
2019-06-20T13:01:03.692Z,20.70
2019-06-20T13:03:56.676Z,20.60
2019-06-20T13:06:50.345Z,20.40
2019-06-20T13:09:40.478Z,20.90
2019-06-20T13:12:46.195Z,21.90
2019-06-20T13:15:34.901Z,22.20
2019-06-20T13:18:35.663Z,21.90
2019-06-20T13:21:18.912Z,21.80
2019-06-20T13:23:50.115Z,22.00
2019-06-20T13:26:23.431Z,21.90
2019-06-20T13:29:04.495Z,22.10
2019-06-20T13:32:04.213Z,22.00
2019-06-20T13:34:58.022Z,21.30
2019-06-20T13:38:01.331Z,21.40
2019-06-20T13:40:55.487Z,22.10
2019-06-20T13:43:45.353Z,22.40
2019-06-20T13:46:32.825Z,21.90
2019-06-20T13:49:29.392Z,21.60
2019-06-20T13:52:29.138Z,21.30
2019-06-20T13:55:28.605Z,21.40
2019-06-20T13:58:24.325Z,21.50
2019-06-20T14:01:10.609Z,21.20
2019-06-20T14:04:04.879Z,22.30
2019-06-20T14:06:57.037Z,22.70
2019-06-20T14:09:57.947Z,22.40
2019-06-20T14:12:50.541Z,22.60
2019-06-20T14:15:53.715Z,22.70
2019-06-20T14:19:01.677Z,22.60
2019-06-20T14:22:07.338Z,22.30
2019-06-20T14:24:53.675Z,21.90
2019-06-20T14:27:53.984Z,22.00
2019-06-20T14:30:37.300Z,22.30
2019-06-20T14:33:25.579Z,22.40
2019-06-20T14:36:30.339Z,22.70
2019-06-20T14:39:34.221Z,22.80
2019-06-20T14:42:33.146Z,23.10
2019-06-20T14:45:38.007Z,23.70
2019-06-20T14:48:39.859Z,23.30
2019-06-20T14:51:35.514Z,23.10
2019-06-20T14:54:45.900Z,22.80
2019-06-20T14:58:02.741Z,22.00
2019-06-20T15:01:05.667Z,22.30
2019-06-20T15:04:14.488Z,22.40
2019-06-20T15:07:30.040Z,22.60
2019-06-20T15:10:43.855Z,22.70
2019-06-20T15:13:53.471Z,22.40
2019-06-20T15:16:51.333Z,22.40
2019-06-20T15:19:56.102Z,22.00
2019-06-20T15:23:03.883Z,21.80
2019-06-20T15:25:52.455Z,22.20
2019-06-20T15:28:57.184Z,22.00
2019-06-20T15:31:50.540Z,22.40
2019-06-20T15:34:29.215Z,22.50
2019-06-20T15:37:30.999Z,22.40
2019-06-20T15:40:22.993Z,22.70
2019-06-20T15:43:24.194Z,23.00
2019-06-20T15:46:21.276Z,22.80
2019-06-20T15:49:16.201Z,22.70
2019-06-20T15:52:02.771Z,22.60
2019-06-20T15:54:55.993Z,22.60
2019-06-20T15:57:46.406Z,22.90
2019-06-20T16:00:28.487Z,23.00
2019-06-20T16:03:10.622Z,23.30
2019-06-20T16:06:02.795Z,23.20
2019-06-20T16:08:47.459Z,23.30
2019-06-20T16:11:39.337Z,23.40
2019-06-20T16:14:33.427Z,23.50
2019-06-20T16:17:23.731Z,23.60
2019-06-20T16:20:18.833Z,23.60
2019-06-20T16:23:11.045Z,23.80
2019-06-20T16:26:05.202Z,23.60
2019-06-20T16:28:59.369Z,23.40
2019-06-20T16:31:53.478Z,23.40
2019-06-20T16:34:43.386Z,23.70
2019-06-20T16:37:26.931Z,23.70
2019-06-20T16:40:35.055Z,23.50
2019-06-20T16:43:30.445Z,23.40
2019-06-20T16:46:24.429Z,22.60
2019-06-20T16:49:25.432Z,22.60
2019-06-20T16:52:36.147Z,23.00
2019-06-20T16:55:43.391Z,23.20
2019-06-20T16:58:51.479Z,23.20
2019-06-20T17:01:55.048Z,23.30
2019-06-20T17:05:00.026Z,23.10
2019-06-20T17:08:04.767Z,23.30
2019-06-20T17:11:11.136Z,22.90
2019-06-20T17:14:12.153Z,22.10
2019-06-20T17:17:19.004Z,21.60
2019-06-20T17:20:18.457Z,21.20
2019-06-20T17:23:15.094Z,20.90
2019-06-20T17:26:18.125Z,20.70
2019-06-20T17:29:17.220Z,20.60
2019-06-20T17:32:16.689Z,20.40
2019-06-20T17:35:22.304Z,20.20
2019-06-20T17:38:20.687Z,20.10
2019-06-20T17:41:27.710Z,20.00
2019-06-20T17:44:40.204Z,19.80
2019-06-20T17:47:38.228Z,19.60
2019-06-20T17:50:38.158Z,19.50
2019-06-20T17:53:30.818Z,19.50
2019-06-20T17:56:37.534Z,19.50
2019-06-20T17:59:43.880Z,19.40
2019-06-20T18:02:23.715Z,19.40
2019-06-20T18:05:09.722Z,19.30
2019-06-20T18:08:15.385Z,19.20
2019-06-20T18:11:14.063Z,19.10
2019-06-20T18:14:16.182Z,18.80
2019-06-20T18:17:19.885Z,18.60
2019-06-20T18:20:22.201Z,18.50
2019-06-20T18:23:05.817Z,18.50
2019-06-20T18:26:01.485Z,18.50
2019-06-20T18:28:38.067Z,18.40
2019-06-20T18:31:16.071Z,18.40
2019-06-20T18:34:26.406Z,18.30
2019-06-20T18:37:10.763Z,18.30
2019-06-20T18:40:18.133Z,18.20
2019-06-20T18:43:11.167Z,18.20
2019-06-20T18:46:09.604Z,18.20
2019-06-20T18:49:10.267Z,18.10
2019-06-20T18:52:09.813Z,18.10
2019-06-20T18:55:16.991Z,18.00
2019-06-20T18:58:18.292Z,18.10
2019-06-20T19:01:20.589Z,18.00
2019-06-20T19:04:25.925Z,17.90
2019-06-20T19:07:40.540Z,17.80
2019-06-20T19:10:44.306Z,17.60
2019-06-20T19:13:44.568Z,17.60
2019-06-20T19:16:45.422Z,17.50
2019-06-20T19:19:50.588Z,17.40
2019-06-20T19:22:46.387Z,17.30
2019-06-20T19:25:36.451Z,17.20
2019-06-20T19:28:44.441Z,17.10
2019-06-20T19:31:48.596Z,17.00
2019-06-20T19:35:00.949Z,16.90
2019-06-20T19:37:53.529Z,16.90
2019-06-20T19:40:56.229Z,16.90
2019-06-20T19:44:13.814Z,16.80
2019-06-20T19:47:24.949Z,16.70
2019-06-20T19:50:30.346Z,16.50
2019-06-20T19:53:34.816Z,16.30
2019-06-20T19:56:42.908Z,16.30
2019-06-20T19:59:46.858Z,16.20
2019-06-20T20:02:53.060Z,16.20
2019-06-20T20:05:48.570Z,16.00
2019-06-20T20:08:58.321Z,15.90
2019-06-20T20:12:06.308Z,15.90
2019-06-20T20:15:15.978Z,15.80
2019-06-20T20:18:23.293Z,15.70
2019-06-20T20:21:28.811Z,15.60
2019-06-20T20:24:32.763Z,15.50
2019-06-20T20:27:38.427Z,15.30
2019-06-20T20:30:37.390Z,15.30
2019-06-20T20:33:48.517Z,15.20
2019-06-20T20:36:59.701Z,15.10
2019-06-20T20:40:20.573Z,15.10
2019-06-20T20:43:42.773Z,14.90
2019-06-20T20:47:01.663Z,14.80
2019-06-20T20:50:04.768Z,14.70
2019-06-20T20:52:47.969Z,14.70
2019-06-20T20:55:39.591Z,14.70
2019-06-20T20:58:23.107Z,14.60
2019-06-20T21:01:18.705Z,14.60
2019-06-20T21:04:26.981Z,14.50
2019-06-20T21:07:33.834Z,14.40
2019-06-20T21:10:50.393Z,14.30
2019-06-20T21:14:00.419Z,14.20
2019-06-20T21:17:11.011Z,14.30
2019-06-20T21:20:13.614Z,14.20
2019-06-20T21:23:24.799Z,14.20
2019-06-20T21:26:47.930Z,14.20
2019-06-20T21:29:26.558Z,14.20
2019-06-20T21:32:36.418Z,14.10
2019-06-20T21:35:50.193Z,14.00
2019-06-20T21:39:03.969Z,14.00
2019-06-20T21:42:08.806Z,14.00
2019-06-20T21:45:24.238Z,14.00
2019-06-20T21:48:39.442Z,14.00
2019-06-20T21:52:02.708Z,14.00
2019-06-20T21:55:11.990Z,13.80
2019-06-20T21:58:10.344Z,13.80
2019-06-20T22:01:12.411Z,13.70
2019-06-20T22:04:00.360Z,13.70
2019-06-20T22:06:47.415Z,13.70
2019-06-20T22:09:54.818Z,13.60
2019-06-20T22:13:05.533Z,13.50
2019-06-20T22:16:12.833Z,13.40
2019-06-20T22:19:18.729Z,13.30
2019-06-20T22:25:46.008Z,13.10
2019-06-20T22:28:50.175Z,13.00
2019-06-20T22:31:56.052Z,13.00
2019-06-20T22:34:47.362Z,13.00
2019-06-20T22:38:04.205Z,13.00
2019-06-20T22:41:17.823Z,12.90
2019-06-20T22:44:27.737Z,12.80
2019-06-20T22:47:24.935Z,12.70
2019-06-20T22:50:22.766Z,12.70
2019-06-20T22:53:14.251Z,12.80
2019-06-20T22:56:20.693Z,12.60
2019-06-20T22:59:10.122Z,12.60
2019-06-20T23:02:15.773Z,12.60
2019-06-20T23:05:23.929Z,12.70
2019-06-20T23:08:34.906Z,12.70
2019-06-20T23:11:44.994Z,12.60
2019-06-20T23:14:52.086Z,12.50
2019-06-20T23:17:47.061Z,12.40
2019-06-20T23:20:25.617Z,12.40
2019-06-20T23:23:09.581Z,12.40
2019-06-20T23:26:03.432Z,12.40
2019-06-20T23:29:09.502Z,12.40
2019-06-20T23:32:10.471Z,12.40
2019-06-20T23:35:24.443Z,12.40
2019-06-20T23:38:35.586Z,12.30
2019-06-20T23:41:43.613Z,12.40
2019-06-20T23:44:50.171Z,12.30
2019-06-20T23:47:51.120Z,12.30
2019-06-20T23:51:24.503Z,12.20
2019-06-20T23:53:59.471Z,12.20
2019-06-20T23:56:35.478Z,12.20
2019-06-20T23:59:28.797Z,12.30
